Audrey — PD9331 — position and weather

sailwx.info

Track history (hours):
 
Tides and Currents Weather Stations Pressure Air Temp Water Temp Dewpoint Dewpoint Depression Visibility Wind Speed Wind Dir Waves Ship Positions

Audrey

Last reported at 2017-Dec-11 17:00 UTC. Time now 2017-Dec-13 09:23 UTC.
Position N 51°17' E 004°21'.

Length 85 m; draft 1.5 m.

Type: Wing in ground effect craft. MMSI: 244660106.

Date/timePositionNaut miles runAvg speedWind from/ knotsBaromVisibWave heightAir tempDewpointWater temp
2017-Dec-11 17:00N 51°17' E 004°21'1 1.1
2017-Dec-11 16:31N 51°17' E 004°20'0 0.9
2017-Dec-11 16:00N 51°17' E 004°19'0 0.3
2017-Dec-11 15:30N 51°16' E 004°19'1 2.1
2017-Dec-11 15:01N 51°16' E 004°17'1 1.4
2017-Dec-11 14:30N 51°16' E 004°16'2 4.5
2017-Dec-11 14:00N 51°17' E 004°13'0 0.0
2017-Dec-11 13:30N 51°17' E 004°13'0 0.0
2017-Dec-11 13:00N 51°17' E 004°13'0 0.0
2017-Dec-11 12:30N 51°17' E 004°13'0 0.0
2017-Dec-11 12:00N 51°17' E 004°13'1 1.6
2017-Dec-11 11:30N 51°16' E 004°14'0 0.0
2017-Dec-11 11:00N 51°16' E 004°14'0 0.0
2017-Dec-11 10:30N 51°16' E 004°14'0 0.0
2017-Dec-11 10:00N 51°16' E 004°14'0 0.0
2017-Dec-11 09:30N 51°16' E 004°14'0 0.0
2017-Dec-11 09:00N 51°16' E 004°14'0 0.0
2017-Dec-11 08:30N 51°16' E 004°14'0 0.0
2017-Dec-11 08:00N 51°16' E 004°14'0 0.0
2017-Dec-11 07:30N 51°16' E 004°14'0 0.0
2017-Dec-11 07:00N 51°16' E 004°14'0 0.0
2017-Dec-11 06:30N 51°16' E 004°14'0 0.0
2017-Dec-11 06:00N 51°16' E 004°14'0 0.0
2017-Dec-11 05:30N 51°16' E 004°14'0 0.0
2017-Dec-11 05:00N 51°16' E 004°14'0 0.0
2017-Dec-11 04:30N 51°16' E 004°14'0 0.0
2017-Dec-11 04:00N 51°16' E 004°14'0 0.0
2017-Dec-11 03:30N 51°16' E 004°14'0 0.0
2017-Dec-11 03:00N 51°16' E 004°14'0 0.0
2017-Dec-11 02:30N 51°16' E 004°14'0 0.0
2017-Dec-11 02:00N 51°16' E 004°14'0 0.0
2017-Dec-11 01:30N 51°16' E 004°14'0 0.0
2017-Dec-11 01:00N 51°16' E 004°14'0 0.0
2017-Dec-11 00:30N 51°16' E 004°14'0 0.0
2017-Dec-11 00:00N 51°16' E 004°14'0 0.0
2017-Dec-10 23:30N 51°16' E 004°14'0 0.0
2017-Dec-10 23:00N 51°16' E 004°14'0 0.0
2017-Dec-10 22:30N 51°16' E 004°14'0 0.0
2017-Dec-10 22:00N 51°16' E 004°14'0 0.0
2017-Dec-10 21:30N 51°16' E 004°14'0 0.0
2017-Dec-10 21:00N 51°16' E 004°14'0 0.0
2017-Dec-10 20:30N 51°16' E 004°14'0 0.0
2017-Dec-10 20:00N 51°16' E 004°14'1 1.1
2017-Dec-10 19:26N 51°17' E 004°15'0 0.8
2017-Dec-10 19:00N 51°17' E 004°15'4 7.7
2017-Dec-10 18:30N 51°21' E 004°17'0 0.8
2017-Dec-10 17:59N 51°21' E 004°18'0 0.2
2017-Dec-10 17:30N 51°21' E 004°18'1 1.2
2017-Dec-10 16:57N 51°22' E 004°18'17 6.0
2017-Dec-10 14:05N 51°39' E 004°16'2 9.4
2017-Dec-10 13:54N 51°39' E 004°19'3 8.7
2017-Dec-10 13:30N 51°41' E 004°23'1 2.1
2017-Dec-10 13:00N 51°42' E 004°25'4 8.9
2017-Dec-10 12:30N 51°42' E 004°32'5 9.5
2017-Dec-10 12:00N 51°43' E 004°39'5 9.6
2017-Dec-10 11:30N 51°46' E 004°45'5 9.4
2017-Dec-10 11:00N 51°48' E 004°52'5 9.6
2017-Dec-10 10:30N 51°49' E 004°59'5 9.9
2017-Dec-10 10:00N 51°49' E 005°08'510.4
2017-Dec-10 09:30N 51°49' E 005°16'4 8.7
2017-Dec-10 09:00N 51°49' E 005°23'11 9.9
2017-Dec-10 07:55N 51°54' E 005°39'910.9
2017-Dec-10 07:05N 51°51' E 005°53'210.1
2017-Dec-10 06:51N 51°52' E 005°56'3 7.7
2017-Dec-10 06:30N 51°53' E 006°00'611.0
2017-Dec-10 06:00N 51°51' E 006°09'18 9.7
2017-Dec-10 04:09N 51°40' E 006°31'211.0
2017-Dec-10 04:00N 51°40' E 006°34'1 2.9
2017-Dec-10 03:30N 51°39' E 006°36'0 0.0
2017-Dec-10 02:54N 51°39' E 006°36'0 0.0
2017-Dec-10 02:30N 51°39' E 006°36'0 0.0
2017-Dec-10 01:48N 51°39' E 006°36'0 0.0
2017-Dec-10 01:30N 51°39' E 006°36'0 0.0
2017-Dec-10 01:00N 51°39' E 006°36'0 0.0
2017-Dec-10 00:30N 51°39' E 006°36'0 0.0
2017-Dec-09 23:59N 51°39' E 006°36'0 0.0
2017-Dec-09 23:27N 51°39' E 006°36'0 0.0
2017-Dec-09 23:00N 51°39' E 006°36'0 0.0
2017-Dec-09 22:23N 51°39' E 006°36'0 0.0
2017-Dec-09 21:54N 51°39' E 006°36'0 0.0
2017-Dec-09 21:17N 51°39' E 006°36'0 0.0
2017-Dec-09 20:58N 51°39' E 006°36'0 0.0
2017-Dec-09 20:21N 51°39' E 006°36'0 0.0
2017-Dec-09 19:24N 51°39' E 006°36'2 2.9
2017-Dec-09 18:37N 51°37' E 006°35'112.3
2017-Dec-09 18:30N 51°35' E 006°36'4 7.9
2017-Dec-09 18:01N 51°33' E 006°41'4 8.3
2017-Dec-09 17:31N 51°29' E 006°41'5 9.9
2017-Dec-09 17:00N 51°25' E 006°45'6 7.3
2017-Dec-09 16:13N 51°19' E 006°44'311.9
2017-Dec-09 16:00N 51°17' E 006°42'3 6.7
2017-Dec-09 15:30N 51°14' E 006°44'4 7.4
2017-Dec-09 15:00N 51°11' E 006°48'3 5.7
2017-Dec-09 14:28N 51°08' E 006°51'11 9.6
2017-Dec-09 13:17N 50°59' E 006°60'310.5
2017-Dec-09 13:00N 50°56' E 006°58'5 8.0
2017-Dec-09 12:26N 50°52' E 007°01'91 4.2
2017-Dec-08 14:47N 49°37' E 008°23'310.3
2017-Dec-08 14:30N 49°35' E 008°25'5 9.9
2017-Dec-08 14:01N 49°30' E 008°26'4 7.2
2017-Dec-08 13:30N 49°27' E 008°29'5 8.6
2017-Dec-08 12:59N 49°22' E 008°30'  
2017-Dec-02 06:08N 49°18' E 008°29'2 4.1
2017-Dec-02 05:39N 49°19' E 008°27'3 4.5
2017-Dec-02 04:56N 49°22' E 008°30'2 5.0
2017-Dec-02 04:30N 49°24' E 008°30'1 0.8
2017-Dec-02 02:44N 49°25' E 008°30'0 0.0
2017-Dec-02 02:26N 49°25' E 008°30'0 0.0
2017-Dec-02 01:45N 49°25' E 008°30'0 0.0
2017-Dec-01 23:19N 49°25' E 008°30'0 0.0
2017-Dec-01 22:37N 49°25' E 008°30'0 0.0
2017-Dec-01 22:27N 49°25' E 008°30'0 0.0
2017-Dec-01 21:18N 49°25' E 008°30'0 0.0
2017-Dec-01 20:23N 49°25' E 008°30'0 0.0
2017-Dec-01 19:17N 49°25' E 008°30'1 3.3
2017-Dec-01 19:00N 49°26' E 008°31'2 4.9
2017-Dec-01 18:30N 49°27' E 008°27'2 4.2
2017-Dec-01 18:00N 49°29' E 008°27'3 5.9
2017-Dec-01 17:30N 49°32' E 008°26'  
Track history (hours):
 
Tides and Currents Weather Stations Pressure Air Temp Water Temp Dewpoint Dewpoint Depression Visibility Wind Speed Wind Dir Waves Ship Positions

Audrey

Last reported at 2017-Dec-11 17:00 UTC. Time now 2017-Dec-13 09:23 UTC.
Position N 51°17' E 004°21'.

Length 85 m; draft 1.5 m.

Type: Wing in ground effect craft. MMSI: 244660106.

Date/timePositionNaut miles runAvg speedWind from/ knotsBaromVisibWave heightAir tempDewpointWater temp
2017-Dec-11 17:00N 51°17' E 004°21'1 1.1
2017-Dec-11 16:31N 51°17' E 004°20'0 0.9
2017-Dec-11 16:00N 51°17' E 004°19'0 0.3
2017-Dec-11 15:30N 51°16' E 004°19'1 2.1
2017-Dec-11 15:01N 51°16' E 004°17'1 1.4
2017-Dec-11 14:30N 51°16' E 004°16'2 4.5
2017-Dec-11 14:00N 51°17' E 004°13'0 0.0
2017-Dec-11 13:30N 51°17' E 004°13'0 0.0
2017-Dec-11 13:00N 51°17' E 004°13'0 0.0
2017-Dec-11 12:30N 51°17' E 004°13'0 0.0
2017-Dec-11 12:00N 51°17' E 004°13'1 1.6
2017-Dec-11 11:30N 51°16' E 004°14'0 0.0
2017-Dec-11 11:00N 51°16' E 004°14'0 0.0
2017-Dec-11 10:30N 51°16' E 004°14'0 0.0
2017-Dec-11 10:00N 51°16' E 004°14'0 0.0
2017-Dec-11 09:30N 51°16' E 004°14'0 0.0
2017-Dec-11 09:00N 51°16' E 004°14'0 0.0
2017-Dec-11 08:30N 51°16' E 004°14'0 0.0
2017-Dec-11 08:00N 51°16' E 004°14'0 0.0
2017-Dec-11 07:30N 51°16' E 004°14'0 0.0
2017-Dec-11 07:00N 51°16' E 004°14'0 0.0
2017-Dec-11 06:30N 51°16' E 004°14'0 0.0
2017-Dec-11 06:00N 51°16' E 004°14'0 0.0
2017-Dec-11 05:30N 51°16' E 004°14'0 0.0
2017-Dec-11 05:00N 51°16' E 004°14'0 0.0
2017-Dec-11 04:30N 51°16' E 004°14'0 0.0
2017-Dec-11 04:00N 51°16' E 004°14'0 0.0
2017-Dec-11 03:30N 51°16' E 004°14'0 0.0
2017-Dec-11 03:00N 51°16' E 004°14'0 0.0
2017-Dec-11 02:30N 51°16' E 004°14'0 0.0
2017-Dec-11 02:00N 51°16' E 004°14'0 0.0
2017-Dec-11 01:30N 51°16' E 004°14'0 0.0
2017-Dec-11 01:00N 51°16' E 004°14'0 0.0
2017-Dec-11 00:30N 51°16' E 004°14'0 0.0
2017-Dec-11 00:00N 51°16' E 004°14'0 0.0
2017-Dec-10 23:30N 51°16' E 004°14'0 0.0
2017-Dec-10 23:00N 51°16' E 004°14'0 0.0
2017-Dec-10 22:30N 51°16' E 004°14'0 0.0
2017-Dec-10 22:00N 51°16' E 004°14'0 0.0
2017-Dec-10 21:30N 51°16' E 004°14'0 0.0
2017-Dec-10 21:00N 51°16' E 004°14'0 0.0
2017-Dec-10 20:30N 51°16' E 004°14'0 0.0
2017-Dec-10 20:00N 51°16' E 004°14'1 1.1
2017-Dec-10 19:26N 51°17' E 004°15'0 0.8
2017-Dec-10 19:00N 51°17' E 004°15'4 7.7
2017-Dec-10 18:30N 51°21' E 004°17'0 0.8
2017-Dec-10 17:59N 51°21' E 004°18'0 0.2
2017-Dec-10 17:30N 51°21' E 004°18'1 1.2
2017-Dec-10 16:57N 51°22' E 004°18'17 6.0
2017-Dec-10 14:05N 51°39' E 004°16'2 9.4
2017-Dec-10 13:54N 51°39' E 004°19'3 8.7
2017-Dec-10 13:30N 51°41' E 004°23'1 2.1
2017-Dec-10 13:00N 51°42' E 004°25'4 8.9
2017-Dec-10 12:30N 51°42' E 004°32'5 9.5
2017-Dec-10 12:00N 51°43' E 004°39'5 9.6
2017-Dec-10 11:30N 51°46' E 004°45'5 9.4
2017-Dec-10 11:00N 51°48' E 004°52'5 9.6
2017-Dec-10 10:30N 51°49' E 004°59'5 9.9
2017-Dec-10 10:00N 51°49' E 005°08'510.4
2017-Dec-10 09:30N 51°49' E 005°16'4 8.7
2017-Dec-10 09:00N 51°49' E 005°23'11 9.9
2017-Dec-10 07:55N 51°54' E 005°39'910.9
2017-Dec-10 07:05N 51°51' E 005°53'210.1
2017-Dec-10 06:51N 51°52' E 005°56'3 7.7
2017-Dec-10 06:30N 51°53' E 006°00'611.0
2017-Dec-10 06:00N 51°51' E 006°09'18 9.7
2017-Dec-10 04:09N 51°40' E 006°31'211.0
2017-Dec-10 04:00N 51°40' E 006°34'1 2.9
2017-Dec-10 03:30N 51°39' E 006°36'0 0.0
2017-Dec-10 02:54N 51°39' E 006°36'0 0.0
2017-Dec-10 02:30N 51°39' E 006°36'0 0.0
2017-Dec-10 01:48N 51°39' E 006°36'0 0.0
2017-Dec-10 01:30N 51°39' E 006°36'0 0.0
2017-Dec-10 01:00N 51°39' E 006°36'0 0.0
2017-Dec-10 00:30N 51°39' E 006°36'0 0.0
2017-Dec-09 23:59N 51°39' E 006°36'0 0.0
2017-Dec-09 23:27N 51°39' E 006°36'0 0.0
2017-Dec-09 23:00N 51°39' E 006°36'0 0.0
2017-Dec-09 22:23N 51°39' E 006°36'0 0.0
2017-Dec-09 21:54N 51°39' E 006°36'0 0.0
2017-Dec-09 21:17N 51°39' E 006°36'0 0.0
2017-Dec-09 20:58N 51°39' E 006°36'0 0.0
2017-Dec-09 20:21N 51°39' E 006°36'0 0.0
2017-Dec-09 19:24N 51°39' E 006°36'2 2.9
2017-Dec-09 18:37N 51°37' E 006°35'112.3
2017-Dec-09 18:30N 51°35' E 006°36'4 7.9
2017-Dec-09 18:01N 51°33' E 006°41'4 8.3
2017-Dec-09 17:31N 51°29' E 006°41'5 9.9
2017-Dec-09 17:00N 51°25' E 006°45'6 7.3
2017-Dec-09 16:13N 51°19' E 006°44'311.9
2017-Dec-09 16:00N 51°17' E 006°42'3 6.7
2017-Dec-09 15:30N 51°14' E 006°44'4 7.4
2017-Dec-09 15:00N 51°11' E 006°48'3 5.7
2017-Dec-09 14:28N 51°08' E 006°51'11 9.6
2017-Dec-09 13:17N 50°59' E 006°60'310.5
2017-Dec-09 13:00N 50°56' E 006°58'5 8.0
2017-Dec-09 12:26N 50°52' E 007°01'91 4.2
2017-Dec-08 14:47N 49°37' E 008°23'310.3
2017-Dec-08 14:30N 49°35' E 008°25'5 9.9
2017-Dec-08 14:01N 49°30' E 008°26'4 7.2
2017-Dec-08 13:30N 49°27' E 008°29'5 8.6
2017-Dec-08 12:59N 49°22' E 008°30'  
2017-Dec-02 06:08N 49°18' E 008°29'2 4.1
2017-Dec-02 05:39N 49°19' E 008°27'3 4.5
2017-Dec-02 04:56N 49°22' E 008°30'2 5.0
2017-Dec-02 04:30N 49°24' E 008°30'1 0.8
2017-Dec-02 02:44N 49°25' E 008°30'0 0.0
2017-Dec-02 02:26N 49°25' E 008°30'0 0.0
2017-Dec-02 01:45N 49°25' E 008°30'0 0.0
2017-Dec-01 23:19N 49°25' E 008°30'0 0.0
2017-Dec-01 22:37N 49°25' E 008°30'0 0.0
2017-Dec-01 22:27N 49°25' E 008°30'0 0.0
2017-Dec-01 21:18N 49°25' E 008°30'0 0.0
2017-Dec-01 20:23N 49°25' E 008°30'0 0.0
2017-Dec-01 19:17N 49°25' E 008°30'1 3.3
2017-Dec-01 19:00N 49°26' E 008°31'2 4.9
2017-Dec-01 18:30N 49°27' E 008°27'2 4.2
2017-Dec-01 18:00N 49°29' E 008°27'3 5.9
2017-Dec-01 17:30N 49°32' E 008°26'  

Dump ship's entire track history